Lowden, Iowa
Current Conditions -  °F | °C
As of 4:52 AM on Friday 28 Nov 2014 (Local Time) from KDVN Reporting Station
Broken Clouds Broken Clouds  
Wind Chill:   Ceiling: 10000
Heat Index: 16°   Visibility: 10mi
Dew Point:   Wind: 13mph
Humidity: 71%   Direction: 140°SE
Pressure: 30.25"   Gusts: NA
Location:  41.86°N, 90.93°W
Report Text: KDVN 281052Z AUTO 14011KT 10SM BKN100 M09/M13 A3025 RMK AO2 SLP258 T10891133 FZRANO $
Loading
Personal Weather Stations






























Interactive Weather Map New forecast layout! Learn more

10-Day Weather Forecast

Advertisements
Track Severe Weather on mobile